createdAt,value
2022-08-11T00:00:01.061Z,22.00
2022-08-11T00:02:38.350Z,21.90
2022-08-11T00:05:09.867Z,21.90
2022-08-11T00:07:54.494Z,21.80
2022-08-11T00:10:29.719Z,21.80
2022-08-11T00:13:02.420Z,21.80
2022-08-11T00:15:44.476Z,21.70
2022-08-11T00:18:12.693Z,21.60
2022-08-11T00:20:43.186Z,21.70
2022-08-11T00:23:13.539Z,21.70
2022-08-11T00:25:50.832Z,21.70
2022-08-11T00:28:27.004Z,21.70
2022-08-11T00:30:55.883Z,21.60
2022-08-11T00:33:44.887Z,21.60
2022-08-11T00:36:14.657Z,21.60
2022-08-11T00:38:43.895Z,21.50
2022-08-11T00:41:34.271Z,21.50
2022-08-11T00:44:25.691Z,21.50
2022-08-11T00:47:15.862Z,21.50
2022-08-11T00:50:02.267Z,21.40
2022-08-11T00:52:59.063Z,21.40
2022-08-11T00:55:33.367Z,21.50
2022-08-11T00:58:36.410Z,21.40
2022-08-11T01:01:10.474Z,21.30
2022-08-11T01:04:08.207Z,21.30
2022-08-11T01:06:49.479Z,21.20
2022-08-11T01:09:31.089Z,21.10
2022-08-11T01:12:29.051Z,21.10
2022-08-11T01:14:58.519Z,21.10
2022-08-11T01:17:55.864Z,21.00
2022-08-11T01:20:49.490Z,21.10
2022-08-11T01:23:38.634Z,21.00
2022-08-11T01:26:38.965Z,21.00
2022-08-11T01:29:28.023Z,21.00
2022-08-11T01:32:45.244Z,21.00
2022-08-11T01:35:35.651Z,20.90
2022-08-11T01:38:25.903Z,20.90
2022-08-11T01:41:15.916Z,20.90
2022-08-11T01:44:36.983Z,20.90
2022-08-11T01:47:53.146Z,20.90
2022-08-11T01:50:46.512Z,20.90
2022-08-11T01:53:30.871Z,20.80
2022-08-11T01:56:16.203Z,20.80
2022-08-11T01:58:49.683Z,20.80
2022-08-11T02:01:37.559Z,20.70
2022-08-11T02:04:18.865Z,20.70
2022-08-11T02:06:58.448Z,20.60
2022-08-11T02:09:49.751Z,20.60
2022-08-11T02:12:37.615Z,20.60
2022-08-11T02:15:20.680Z,20.60
2022-08-11T02:18:19.344Z,20.60
2022-08-11T02:21:14.379Z,20.50
2022-08-11T02:24:05.084Z,20.60
2022-08-11T02:26:41.945Z,20.60
2022-08-11T02:29:41.690Z,20.50
2022-08-11T02:32:42.744Z,20.50
2022-08-11T02:35:29.219Z,20.50
2022-08-11T02:38:26.559Z,20.50
2022-08-11T02:41:03.250Z,20.40
2022-08-11T02:44:05.719Z,20.40
2022-08-11T02:46:44.642Z,20.30
2022-08-11T02:49:44.764Z,20.40
2022-08-11T02:52:41.148Z,20.30
2022-08-11T02:55:48.613Z,20.30
2022-08-11T02:58:40.433Z,20.20
2022-08-11T03:01:23.513Z,20.20
2022-08-11T03:04:08.635Z,20.20
2022-08-11T03:06:47.557Z,20.20
2022-08-11T03:09:20.249Z,20.20
2022-08-11T03:12:27.950Z,20.10
2022-08-11T03:15:35.442Z,20.10
2022-08-11T03:18:13.037Z,20.00
2022-08-11T03:20:57.573Z,20.00
2022-08-11T03:23:30.791Z,20.00
2022-08-11T03:26:05.651Z,20.00
2022-08-11T03:28:54.565Z,20.00
2022-08-11T03:31:32.454Z,20.00
2022-08-11T03:34:08.478Z,20.00
2022-08-11T03:37:15.001Z,20.00
2022-08-11T03:39:56.204Z,20.00
2022-08-11T03:42:30.688Z,20.00
2022-08-11T03:45:22.946Z,20.00
2022-08-11T03:48:08.073Z,20.10
2022-08-11T03:51:12.281Z,20.10
2022-08-11T03:53:38.883Z,20.10
2022-08-11T03:56:22.509Z,20.10
2022-08-11T03:59:28.890Z,20.10
2022-08-11T04:02:16.406Z,20.10
2022-08-11T04:05:11.301Z,20.00
2022-08-11T04:08:09.069Z,19.90
2022-08-11T04:11:02.420Z,19.80
2022-08-11T04:14:17.736Z,19.70
2022-08-11T04:17:04.633Z,19.80
2022-08-11T04:20:05.503Z,19.80
2022-08-11T04:22:32.203Z,19.80
2022-08-11T04:25:24.550Z,19.80
2022-08-11T04:28:28.937Z,19.80
2022-08-11T04:31:44.105Z,19.80
2022-08-11T04:34:59.114Z,19.90
2022-08-11T04:37:35.819Z,19.80
2022-08-11T04:40:56.728Z,19.80
2022-08-11T04:43:25.905Z,19.80
2022-08-11T04:46:15.082Z,19.90
2022-08-11T04:49:26.180Z,19.90
2022-08-11T04:52:43.674Z,19.90
2022-08-11T04:55:47.917Z,19.90
2022-08-11T04:58:33.709Z,20.00
2022-08-11T05:01:42.972Z,20.10
2022-08-11T05:04:52.501Z,20.10
2022-08-11T05:08:09.240Z,20.10
2022-08-11T05:11:29.102Z,20.20
2022-08-11T05:14:46.300Z,20.20
2022-08-11T05:17:35.164Z,20.30
2022-08-11T05:20:21.082Z,20.30
2022-08-11T05:23:11.317Z,20.30
2022-08-11T05:26:43.779Z,20.40
2022-08-11T05:29:20.943Z,20.50
2022-08-11T05:32:18.048Z,20.50
2022-08-11T05:34:54.637Z,20.60
2022-08-11T05:37:32.000Z,20.60
2022-08-11T05:43:36.744Z,20.70
2022-08-11T05:46:25.709Z,20.70
2022-08-11T05:49:12.409Z,20.80
2022-08-11T05:55:12.356Z,20.90
2022-08-11T05:57:50.987Z,21.00
2022-08-11T06:03:11.280Z,21.20
2022-08-11T06:05:43.511Z,21.20
2022-08-11T06:08:14.182Z,21.30
2022-08-11T06:10:45.632Z,21.30
2022-08-11T06:13:17.091Z,21.30
2022-08-11T06:15:50.783Z,21.40
2022-08-11T06:18:18.651Z,21.40
2022-08-11T06:20:55.222Z,21.40
2022-08-11T06:23:23.933Z,21.50
2022-08-11T06:25:52.484Z,21.60
2022-08-11T06:28:21.539Z,21.50
2022-08-11T06:30:49.556Z,21.60
2022-08-11T06:33:48.952Z,21.50
2022-08-11T06:36:54.198Z,21.60
2022-08-11T06:46:08.498Z,21.80
2022-08-11T06:48:40.044Z,21.90
2022-08-11T06:51:13.515Z,21.90
2022-08-11T06:54:04.129Z,22.10
2022-08-11T06:57:26.388Z,22.10
2022-08-11T07:00:04.014Z,22.20
2022-08-11T07:02:43.277Z,22.20
2022-08-11T07:05:09.991Z,22.20
2022-08-11T07:08:35.377Z,22.30
2022-08-11T07:11:54.589Z,22.40
2022-08-11T07:14:43.470Z,22.40
2022-08-11T07:17:17.279Z,22.40
2022-08-11T07:20:25.806Z,22.50
2022-08-11T07:23:15.551Z,22.50
2022-08-11T07:26:05.063Z,22.50
2022-08-11T07:28:52.304Z,22.50
2022-08-11T07:31:26.406Z,22.80
2022-08-11T07:34:18.137Z,22.80
2022-08-11T07:36:59.394Z,22.90
2022-08-11T07:39:31.137Z,23.00
2022-08-11T07:41:59.378Z,23.00
2022-08-11T07:44:34.335Z,23.00
2022-08-11T07:47:34.589Z,22.90
2022-08-11T07:50:20.051Z,22.90
2022-08-11T07:52:47.313Z,23.10
2022-08-11T07:55:21.081Z,23.20
2022-08-11T07:58:26.995Z,23.40
2022-08-11T08:01:21.601Z,23.40
2022-08-11T08:04:09.206Z,23.50
2022-08-11T08:06:56.004Z,23.50
2022-08-11T08:09:43.026Z,23.50
2022-08-11T08:12:29.495Z,23.80
2022-08-11T08:15:16.750Z,23.90
2022-08-11T08:18:20.449Z,23.90
2022-08-11T08:20:52.108Z,24.00
2022-08-11T08:23:33.274Z,23.90
2022-08-11T08:26:26.661Z,23.90
2022-08-11T08:28:55.666Z,24.10
2022-08-11T08:31:23.050Z,24.10
2022-08-11T08:33:50.592Z,24.30
2022-08-11T08:36:20.076Z,24.30
2022-08-11T08:38:50.813Z,24.40
2022-08-11T08:41:22.964Z,24.50
2022-08-11T08:43:53.729Z,24.40
2022-08-11T08:46:25.702Z,24.70
2022-08-11T08:48:53.552Z,24.80
2022-08-11T08:52:02.558Z,24.90
2022-08-11T08:54:43.549Z,25.10
2022-08-11T08:57:11.999Z,25.10
2022-08-11T08:59:48.491Z,25.10
2022-08-11T09:02:19.841Z,25.40
2022-08-11T09:05:02.973Z,25.50
2022-08-11T09:07:35.896Z,25.60
2022-08-11T09:10:10.898Z,26.10
2022-08-11T09:12:40.239Z,26.30
2022-08-11T09:15:08.036Z,26.50
2022-08-11T09:17:40.076Z,26.50
2022-08-11T09:20:17.348Z,26.80
2022-08-11T09:24:07.952Z,27.00
2022-08-11T09:26:14.091Z,27.20
2022-08-11T09:28:43.989Z,27.80
2022-08-11T09:31:14.557Z,28.00
2022-08-11T09:33:43.735Z,28.20
2022-08-11T09:36:30.971Z,27.70
2022-08-11T09:39:17.173Z,28.30
2022-08-11T09:42:00.969Z,28.60
2022-08-11T09:44:49.359Z,29.00
2022-08-11T09:47:23.357Z,28.70
2022-08-11T09:49:53.669Z,29.00
2022-08-11T09:52:23.411Z,29.10
2022-08-11T09:54:52.266Z,29.90
2022-08-11T09:57:39.297Z,29.80
2022-08-11T10:00:13.580Z,29.20
2022-08-11T10:02:47.249Z,30.20
2022-08-11T10:05:36.183Z,30.50
2022-08-11T10:08:03.439Z,29.50
2022-08-11T10:10:34.246Z,29.50
2022-08-11T10:14:30.608Z,29.40
2022-08-11T10:16:15.977Z,29.40
2022-08-11T10:18:52.844Z,29.30
2022-08-11T10:21:28.351Z,28.70
2022-08-11T10:24:16.858Z,28.70
2022-08-11T10:26:54.886Z,29.50
2022-08-11T10:29:49.870Z,29.20
2022-08-11T10:32:58.661Z,29.60
2022-08-11T10:35:28.214Z,30.00
2022-08-11T10:38:07.674Z,29.40
2022-08-11T10:40:40.112Z,29.70
2022-08-11T10:43:14.046Z,30.50
2022-08-11T10:46:04.959Z,31.10
2022-08-11T10:48:39.873Z,30.60
2022-08-11T10:51:13.867Z,30.70
2022-08-11T10:54:04.977Z,31.40
2022-08-11T10:56:54.469Z,31.00
2022-08-11T10:59:23.366Z,31.20
2022-08-11T11:01:52.383Z,30.20
2022-08-11T11:04:39.342Z,31.00
2022-08-11T11:07:17.862Z,30.80
2022-08-11T11:09:53.203Z,32.00
2022-08-11T11:12:43.612Z,32.20
2022-08-11T11:15:29.973Z,32.30
2022-08-11T11:18:04.885Z,31.90
2022-08-11T11:21:04.367Z,31.00
2022-08-11T11:23:48.991Z,31.20
2022-08-11T11:26:41.065Z,32.30
2022-08-11T11:29:20.267Z,33.00
2022-08-11T11:32:17.589Z,33.50
2022-08-11T11:35:13.661Z,33.50
2022-08-11T11:37:42.161Z,33.90
2022-08-11T11:40:31.426Z,32.80
2022-08-11T11:43:00.089Z,31.50
2022-08-11T11:45:27.043Z,30.60
2022-08-11T11:47:55.932Z,31.30
2022-08-11T11:50:24.015Z,31.00
2022-08-11T11:52:53.622Z,32.20
2022-08-11T11:55:25.340Z,32.70
2022-08-11T11:58:15.994Z,32.50
2022-08-11T12:01:04.824Z,31.80
2022-08-11T12:03:33.360Z,31.80
2022-08-11T12:06:00.993Z,32.10
2022-08-11T12:08:28.946Z,32.30
2022-08-11T12:11:17.191Z,32.80
2022-08-11T12:13:47.693Z,32.70
2022-08-11T12:16:32.946Z,32.50
2022-08-11T12:19:03.766Z,33.20
2022-08-11T12:21:30.932Z,32.10
2022-08-11T12:24:19.330Z,32.00
2022-08-11T12:27:16.583Z,33.50
2022-08-11T12:29:41.377Z,34.20
2022-08-11T12:32:11.804Z,33.40
2022-08-11T12:34:38.815Z,33.80
2022-08-11T12:37:10.745Z,33.50
2022-08-11T12:40:16.528Z,34.70
2022-08-11T12:43:20.850Z,33.50
2022-08-11T12:45:58.300Z,32.30
2022-08-11T12:48:58.776Z,33.10
2022-08-11T12:52:14.046Z,33.30
2022-08-11T12:54:50.628Z,33.80
2022-08-11T12:57:55.404Z,34.70
2022-08-11T13:00:42.217Z,34.80
2022-08-11T13:03:30.304Z,35.30
2022-08-11T13:05:59.999Z,35.60
2022-08-11T13:08:29.303Z,33.30
2022-08-11T13:11:17.315Z,33.20
2022-08-11T13:13:55.084Z,32.20
2022-08-11T13:16:53.242Z,32.40
2022-08-11T13:19:21.976Z,31.30
2022-08-11T13:21:52.278Z,31.10
2022-08-11T13:24:21.507Z,31.20
2022-08-11T13:26:50.569Z,30.60
2022-08-11T13:29:23.112Z,30.00
2022-08-11T13:31:51.349Z,29.80
2022-08-11T13:34:19.837Z,29.80
2022-08-11T13:36:52.691Z,29.70
2022-08-11T13:39:24.048Z,29.40
2022-08-11T13:41:52.204Z,29.50
2022-08-11T13:44:24.786Z,29.50
2022-08-11T13:46:55.286Z,29.60
2022-08-11T13:49:22.508Z,29.70
2022-08-11T13:51:49.603Z,29.60
2022-08-11T13:54:19.340Z,29.50
2022-08-11T13:56:48.720Z,29.50
2022-08-11T13:59:23.821Z,29.50
2022-08-11T14:02:20.122Z,29.60
2022-08-11T14:04:56.895Z,29.40
2022-08-11T14:07:27.753Z,29.50
2022-08-11T14:09:59.017Z,29.40
2022-08-11T14:12:47.954Z,29.40
2022-08-11T14:15:32.913Z,29.50
2022-08-11T14:18:09.554Z,29.60
2022-08-11T14:20:58.845Z,29.40
2022-08-11T14:23:29.439Z,29.50
2022-08-11T14:26:15.483Z,29.50
2022-08-11T14:28:44.948Z,29.50
2022-08-11T14:31:14.999Z,29.40
2022-08-11T14:34:00.447Z,29.40
2022-08-11T14:36:38.265Z,29.40
2022-08-11T14:39:12.563Z,29.30
2022-08-11T14:42:10.387Z,29.20
2022-08-11T14:45:01.267Z,29.10
2022-08-11T14:47:30.824Z,29.20
2022-08-11T14:50:11.108Z,29.20
2022-08-11T14:52:44.601Z,29.10
2022-08-11T14:55:31.894Z,28.90
2022-08-11T14:57:59.672Z,29.10
2022-08-11T15:00:26.859Z,29.00
2022-08-11T15:03:10.459Z,29.10
2022-08-11T15:05:58.726Z,29.00
2022-08-11T15:08:51.311Z,29.10
2022-08-11T15:11:38.004Z,29.10
2022-08-11T15:14:07.394Z,29.20
2022-08-11T15:16:55.150Z,29.10
2022-08-11T15:19:22.032Z,29.20
2022-08-11T15:22:08.596Z,29.20
2022-08-11T15:24:36.809Z,29.10
2022-08-11T15:27:30.061Z,29.00
2022-08-11T15:30:32.335Z,29.00
2022-08-11T15:33:22.927Z,29.00
2022-08-11T15:36:09.640Z,29.10
2022-08-11T15:38:47.328Z,29.00
2022-08-11T15:41:35.809Z,29.00
2022-08-11T15:45:01.124Z,29.10
2022-08-11T15:47:25.841Z,29.10
2022-08-11T15:50:12.040Z,29.00
2022-08-11T15:53:00.991Z,29.10
2022-08-11T15:55:30.205Z,29.10
2022-08-11T15:58:17.921Z,29.10
2022-08-11T16:04:13.074Z,29.10
2022-08-11T16:07:01.805Z,29.10
2022-08-11T16:09:46.943Z,29.10
2022-08-11T16:15:36.879Z,29.00
2022-08-11T16:18:06.700Z,28.90
2022-08-11T16:20:35.184Z,28.80
2022-08-11T16:23:05.294Z,28.80
2022-08-11T16:27:05.524Z,28.90
2022-08-11T16:28:25.492Z,28.80
2022-08-11T16:30:54.799Z,28.80
2022-08-11T16:33:50.468Z,28.80
2022-08-11T16:36:33.022Z,28.80
2022-08-11T16:39:01.539Z,28.70
2022-08-11T16:45:00.943Z,28.60
2022-08-11T16:48:01.890Z,28.70
2022-08-11T16:50:16.016Z,28.60
2022-08-11T16:52:43.479Z,28.60
2022-08-11T16:55:10.725Z,28.60
2022-08-11T16:57:57.861Z,28.60
2022-08-11T17:03:38.480Z,28.50
2022-08-11T17:06:25.864Z,28.50
2022-08-11T17:12:24.054Z,28.50
2022-08-11T17:14:55.915Z,28.40
2022-08-11T17:20:41.644Z,28.40
2022-08-11T17:23:30.475Z,28.40
2022-08-11T17:26:04.684Z,28.30
2022-08-11T17:28:34.618Z,28.40
2022-08-11T17:34:34.441Z,28.30
2022-08-11T17:37:03.148Z,28.20
2022-08-11T17:39:31.575Z,28.30
2022-08-11T17:45:31.852Z,28.20
2022-08-11T17:48:20.104Z,28.20
2022-08-11T17:50:54.310Z,28.10
2022-08-11T17:53:40.713Z,28.00
2022-08-11T17:59:53.326Z,27.90
2022-08-11T18:02:44.046Z,27.80
2022-08-11T18:05:13.846Z,27.70
2022-08-11T18:08:02.110Z,27.70
2022-08-11T18:10:52.443Z,27.60
2022-08-11T18:13:40.544Z,27.50
2022-08-11T18:16:27.538Z,27.40
2022-08-11T18:19:13.727Z,27.30
2022-08-11T18:22:14.729Z,27.20
2022-08-11T18:25:09.151Z,27.10
2022-08-11T18:27:57.215Z,27.00
2022-08-11T18:30:43.714Z,26.90
2022-08-11T18:34:03.753Z,26.90
2022-08-11T18:36:54.195Z,26.70
2022-08-11T18:39:42.352Z,26.70
2022-08-11T18:42:34.120Z,26.60
2022-08-11T18:45:25.166Z,26.50
2022-08-11T18:48:19.571Z,26.40
2022-08-11T18:51:31.287Z,26.30
2022-08-11T18:54:16.620Z,26.20
2022-08-11T18:57:04.777Z,26.20
2022-08-11T18:59:55.369Z,26.10
2022-08-11T19:02:48.628Z,26.10
2022-08-11T19:06:05.976Z,26.00
2022-08-11T19:08:47.648Z,26.00
2022-08-11T19:11:33.918Z,25.90
2022-08-11T19:14:22.046Z,25.80
2022-08-11T19:17:09.848Z,25.90
2022-08-11T19:19:57.770Z,25.80
2022-08-11T19:22:45.280Z,25.70
2022-08-11T19:25:31.613Z,25.60
2022-08-11T19:28:16.888Z,25.60
2022-08-11T19:31:03.067Z,25.60
2022-08-11T19:34:00.340Z,25.50
2022-08-11T19:36:50.415Z,25.50
2022-08-11T19:39:38.653Z,25.50
2022-08-11T19:42:26.906Z,25.50
2022-08-11T19:45:13.686Z,25.40
2022-08-11T19:48:28.156Z,25.40
2022-08-11T19:51:06.895Z,25.40
2022-08-11T19:53:53.724Z,25.30
2022-08-11T19:56:40.133Z,25.30
2022-08-11T19:59:26.852Z,25.30
2022-08-11T20:02:13.294Z,25.20
2022-08-11T20:05:00.917Z,25.10
2022-08-11T20:07:48.686Z,25.10
2022-08-11T20:10:38.366Z,25.10
2022-08-11T20:13:26.870Z,25.10
2022-08-11T20:16:13.965Z,25.10
2022-08-11T20:19:01.154Z,25.10
2022-08-11T20:21:48.102Z,25.00
2022-08-11T20:24:35.876Z,25.00
2022-08-11T20:27:24.903Z,24.90
2022-08-11T20:30:12.291Z,24.90
2022-08-11T20:32:59.353Z,24.80
2022-08-11T20:35:45.577Z,24.80
2022-08-11T20:38:33.620Z,24.80
2022-08-11T20:41:21.592Z,24.80
2022-08-11T20:44:09.592Z,24.80
2022-08-11T20:46:57.477Z,24.80
2022-08-11T20:49:53.584Z,24.70
2022-08-11T20:52:48.164Z,24.80
2022-08-11T20:55:46.284Z,24.70
2022-08-11T20:59:13.450Z,24.70
2022-08-11T21:01:45.948Z,24.70
2022-08-11T21:04:32.684Z,24.60
2022-08-11T21:07:27.693Z,24.50
2022-08-11T21:10:23.727Z,24.50
2022-08-11T21:13:26.554Z,24.50
2022-08-11T21:16:26.070Z,24.40
2022-08-11T21:19:18.057Z,24.40
2022-08-11T21:22:05.218Z,24.40
2022-08-11T21:24:51.788Z,24.40
2022-08-11T21:27:40.090Z,24.30
2022-08-11T21:30:25.807Z,24.20
2022-08-11T21:33:12.657Z,24.20
2022-08-11T21:35:58.430Z,24.20
2022-08-11T21:38:44.661Z,24.20
2022-08-11T21:41:31.131Z,24.20
2022-08-11T21:44:17.552Z,24.10
2022-08-11T21:47:04.279Z,24.00
2022-08-11T21:49:52.016Z,24.00
2022-08-11T21:52:38.255Z,24.00
2022-08-11T21:55:24.304Z,23.90
2022-08-11T21:58:09.689Z,23.90
2022-08-11T22:04:06.346Z,23.90
2022-08-11T22:06:52.849Z,23.80
2022-08-11T22:09:39.231Z,23.80
2022-08-11T22:12:33.617Z,23.80
2022-08-11T22:15:21.980Z,23.70
2022-08-11T22:18:07.466Z,23.70
2022-08-11T22:20:54.274Z,23.70
2022-08-11T22:23:41.493Z,23.60
2022-08-11T22:26:29.631Z,23.60
2022-08-11T22:32:27.418Z,23.50
2022-08-11T22:35:13.620Z,23.50
2022-08-11T22:38:00.227Z,23.50
2022-08-11T22:43:55.554Z,23.40
2022-08-11T22:46:42.987Z,23.40
2022-08-11T22:52:45.184Z,23.30
2022-08-11T22:55:31.975Z,23.30
2022-08-11T22:58:18.115Z,23.30
2022-08-11T23:01:04.166Z,23.20
2022-08-11T23:03:51.676Z,23.30
2022-08-11T23:06:39.013Z,23.20
2022-08-11T23:09:25.650Z,23.20
2022-08-11T23:12:11.888Z,23.20
2022-08-11T23:14:58.629Z,23.10
2022-08-11T23:17:45.587Z,23.10
2022-08-11T23:20:42.650Z,23.10
2022-08-11T23:23:40.052Z,23.10
2022-08-11T23:26:25.825Z,23.10
2022-08-11T23:29:14.680Z,23.10
2022-08-11T23:32:00.400Z,23.00
2022-08-11T23:35:04.302Z,23.00
2022-08-11T23:37:50.788Z,23.00
2022-08-11T23:40:36.219Z,23.00
2022-08-11T23:43:22.580Z,23.00
2022-08-11T23:46:08.020Z,23.00
2022-08-11T23:48:55.992Z,22.90
2022-08-11T23:51:41.775Z,22.90
2022-08-11T23:54:29.992Z,22.80
2022-08-11T23:57:17.334Z,22.80
